This is the latest recevied weather packets stored in our database for station/object TONGUE. If no packets are shown the sender has not sent any weather packets the latest 10 day(s).
| Time | Temp. | Humidity | Pressure | Rain* | Wind** | Luminosity | Snow |
|---|---|---|---|---|---|---|---|
| 1788486003 | 13.33° C | 99% | 0 hPa | - | - | - | - |
| 1788485403 | 13.89° C | 100% | 0 hPa | - | - | - | - |
| 1788484804 | 13.33° C | 100% | 0 hPa | - | - | - | - |
| 1788484203 | 13.33° C | 100% | 0 hPa | - | - | - | - |
| 1788483604 | 13.89° C | 100% | 0 hPa | - | - | - | - |
| 1788483004 | 13.89° C | 100% | 0 hPa | - | - | - | - |
| 1788482403 | 13.89° C | 99% | 0 hPa | - | - | - | - |
| 1788481803 | 13.33° C | 100% | 0 hPa | - | - | - | - |
| 1788481203 | 13.33° C | 100% | 0 hPa | - | - | - | - |
| 1788480603 | 13.33° C | 100% | 0 hPa | - | - | - | - |
| 1788480002 | 13.89° C | 100% | 0 hPa | - | - | - | - |
| 1788479403 | 13.89° C | 100% | 0 hPa | - | - | - | - |
| 1788478803 | 15° C | 92% | 0 hPa | - | - | - | - |
| 1788478203 | 16.11° C | 90% | 0 hPa | - | - | - | - |
| 1788477603 | 16.67° C | 89% | 0 hPa | - | - | - | - |
| 1788477003 | 16.67° C | 88% | 0 hPa | - | - | - | - |
| 1788476409 | 16.67° C | 90% | 0 hPa | - | - | - | - |
| 1788475802 | 17.22° C | 86% | 0 hPa | - | - | - | - |
| 1788475202 | 17.22° C | 86% | 0 hPa | - | - | - | - |
| 1788474602 | 16.67° C | 87% | 0 hPa | - | - | - | - |
| 1788474003 | 16.67° C | 83% | 0 hPa | - | - | - | - |
| 1788473426 | 16.67° C | 84% | 0 hPa | - | - | - | - |
| 1788472803 | 17.22° C | 83% | 0 hPa | - | - | - | - |
| 1788472203 | 17.22° C | 79% | 0 hPa | - | - | - | - |
| 1788471603 | 16.11° C | 82% | 0 hPa | - | - | - | - |
* Rain since midnight (hover to see other rain measurements)
** Current wind speed in m/s (hover to see current wind gust speed)